createdAt,value
2016-11-01T00:15:35.623Z,1003.16
2016-11-01T00:16:46.022Z,1003.12
2016-11-01T00:17:56.420Z,1003.13
2016-11-01T00:19:06.815Z,1003.16
2016-11-01T00:20:17.197Z,1003.11
2016-11-01T00:21:07.486Z,1003.09
2016-11-01T00:22:17.890Z,1003.08
2016-11-01T00:23:28.288Z,1003.06
2016-11-01T00:24:38.682Z,1003.02
2016-11-01T00:25:49.087Z,1003
2016-11-01T00:26:59.477Z,1003.03
2016-11-01T00:28:09.829Z,1003.03
2016-11-01T00:29:20.191Z,1003.03
2016-11-01T01:15:29.562Z,1002.54
2016-11-01T01:16:39.974Z,1002.59
2016-11-01T01:17:50.344Z,1002.57
2016-11-01T02:15:22.879Z,0
2016-11-01T02:16:33.223Z,0
2016-11-01T02:17:43.568Z,0
2016-11-01T02:18:53.913Z,0
2016-11-01T02:20:04.262Z,0
2016-11-01T03:15:21.421Z,1001.37
2016-11-01T03:16:31.812Z,1001.39
2016-11-01T03:17:42.203Z,1001.38
2016-11-01T03:18:52.593Z,1001.34
2016-11-01T03:20:02.990Z,1001.33
2016-11-01T03:21:13.379Z,1001.27
2016-11-01T03:22:23.778Z,1001.27
2016-11-01T03:23:34.175Z,1001.25
2016-11-01T03:24:44.524Z,1001.25
2016-11-01T03:25:54.874Z,1001.25
2016-11-01T03:27:05.227Z,1001.25
2016-11-01T03:29:25.930Z,1001.25
2016-11-01T03:30:36.284Z,1001.25
2016-11-01T04:15:22.050Z,0
2016-11-01T04:16:32.383Z,0
2016-11-01T04:17:42.730Z,0
2016-11-01T04:18:53.079Z,0
2016-11-01T04:21:13.783Z,0
2016-11-01T04:22:24.021Z,0
2016-11-01T05:15:04.106Z,1000.8
2016-11-01T05:16:14.503Z,1000.9
2016-11-01T05:17:24.900Z,1000.95
2016-11-01T05:18:35.290Z,1000.89
2016-11-01T05:19:45.686Z,1000.94
2016-11-01T05:20:56.082Z,1000.91
2016-11-01T05:22:06.479Z,1000.85
2016-11-01T05:23:16.877Z,1000.83
2016-11-01T05:24:27.227Z,1000.83
2016-11-01T05:25:37.573Z,1000.83
2016-11-01T05:26:47.925Z,1000.83
2016-11-01T05:27:58.271Z,1000.83
2016-11-01T05:29:08.620Z,1000.83
2016-11-01T05:30:19.540Z,1000.83
2016-11-01T05:31:29.323Z,1000.83
2016-11-01T05:32:39.680Z,1000.83
2016-11-01T05:33:50.032Z,1000.83
2016-11-01T05:35:00.383Z,1000.83
2016-11-01T05:36:10.732Z,1000.83
2016-11-01T05:37:21.100Z,1000.83
2016-11-01T05:38:31.463Z,1000.83
2016-11-01T05:39:41.819Z,1000.83
2016-11-01T05:40:52.173Z,1000.83
2016-11-01T05:42:02.531Z,1000.83
2016-11-01T05:43:12.886Z,1000.83
2016-11-01T05:44:23.245Z,1000.83
2016-11-01T05:45:33.602Z,1000.83
2016-11-01T05:46:43.956Z,1000.83
2016-11-01T05:47:54.316Z,1000.83
2016-11-01T05:49:04.675Z,1000.83
2016-11-01T06:15:01.042Z,1000.69
2016-11-01T06:16:11.431Z,1000.65
2016-11-01T06:17:21.824Z,1000.58
2016-11-01T06:18:32.218Z,1000.59
2016-11-01T06:19:42.616Z,1000.51
2016-11-01T06:20:53.013Z,1000.52
2016-11-01T06:22:03.420Z,1000.53
2016-11-01T06:23:13.817Z,1000.53
2016-11-01T06:24:24.212Z,1000.48
2016-11-01T06:25:34.572Z,1000.48
2016-11-01T06:26:44.916Z,1000.48
2016-11-01T06:27:55.267Z,1000.48
2016-11-01T06:29:05.617Z,1000.48
2016-11-01T06:30:15.974Z,1000.48
2016-11-01T06:31:26.323Z,1000.48
2016-11-01T06:32:36.665Z,1000.48
2016-11-01T06:33:47.034Z,1000.48
2016-11-01T06:34:57.389Z,1000.48
2016-11-01T06:36:07.752Z,1000.48
2016-11-01T06:37:18.107Z,1000.48
2016-11-01T06:38:28.465Z,1000.48
2016-11-01T06:39:38.824Z,1000.48
2016-11-01T07:15:28.140Z,1000.75
2016-11-01T07:16:38.533Z,1000.72
2016-11-01T07:17:48.925Z,1000.72
2016-11-01T07:18:59.321Z,1000.7
2016-11-01T07:20:09.715Z,1000.67
2016-11-01T07:21:20.114Z,1000.63
2016-11-01T07:22:30.507Z,1000.68
2016-11-01T07:23:40.902Z,1000.66
2016-11-01T07:24:51.302Z,1000.65
2016-11-01T07:26:01.651Z,1000.65
2016-11-01T07:27:12.002Z,1000.65
2016-11-01T07:28:22.354Z,1000.65
2016-11-01T07:29:32.709Z,1000.65
2016-11-01T07:30:43.065Z,1000.65
2016-11-01T07:31:53.420Z,1000.65
2016-11-01T07:33:03.778Z,1000.65
2016-11-01T07:34:14.132Z,1000.65
2016-11-01T07:35:24.490Z,1000.65
2016-11-01T07:36:34.848Z,1000.65
2016-11-01T07:37:45.209Z,1000.65
2016-11-01T07:38:55.564Z,1000.65
2016-11-01T07:40:05.917Z,1000.65
2016-11-01T07:41:16.325Z,1000.65
2016-11-01T08:15:26.092Z,1000.53
2016-11-01T08:16:36.481Z,1000.5
2016-11-01T08:17:46.873Z,1000.47
2016-11-01T08:18:57.269Z,1000.45
2016-11-01T08:20:07.664Z,1000.42
2016-11-01T08:21:18.061Z,1000.42
2016-11-01T08:22:28.458Z,1000.42
2016-11-01T08:23:38.853Z,1000.42
2016-11-01T08:24:49.204Z,1000.42
2016-11-01T08:25:59.555Z,1000.42
2016-11-01T08:27:09.913Z,1000.42
2016-11-01T08:28:20.265Z,1000.42
2016-11-01T08:29:30.619Z,1000.42
2016-11-01T08:30:40.976Z,1000.42
2016-11-01T08:31:51.335Z,1000.42
2016-11-01T08:33:01.689Z,1000.42
2016-11-01T08:34:12.046Z,1000.42
2016-11-01T08:35:22.403Z,1000.42
2016-11-01T08:36:32.761Z,1000.42
2016-11-01T08:37:43.120Z,1000.42
2016-11-01T08:38:53.477Z,1000.42
2016-11-01T08:40:03.837Z,1000.42
2016-11-01T08:41:14.195Z,1000.42
2016-11-01T08:42:24.553Z,1000.42
2016-11-01T08:43:34.912Z,1000.42
2016-11-01T08:44:45.273Z,1000.42
2016-11-01T08:45:55.627Z,1000.42
2016-11-01T08:47:05.987Z,1000.42
2016-11-01T08:48:16.352Z,1000.42
2016-11-01T08:49:26.713Z,1000.42
2016-11-01T09:15:26.484Z,1000.28
2016-11-01T09:16:36.880Z,1000.31
2016-11-01T09:17:47.272Z,1000.25
2016-11-01T09:18:57.665Z,1000.24
2016-11-01T11:15:22.331Z,998.63
2016-11-01T11:16:32.727Z,998.6
2016-11-01T11:17:43.118Z,998.56
2016-11-01T11:18:53.515Z,998.55
2016-11-01T11:20:03.909Z,998.57
2016-11-01T11:21:14.307Z,998.55
2016-11-01T11:22:24.703Z,998.54
2016-11-01T11:23:35.098Z,998.56
2016-11-01T11:24:45.501Z,998.53
2016-11-01T11:25:55.853Z,998.53
2016-11-01T11:27:06.205Z,998.53
2016-11-01T11:28:16.561Z,998.53
2016-11-01T11:29:26.914Z,998.53
2016-11-01T11:30:37.274Z,998.53
2016-11-01T11:31:47.625Z,998.53
2016-11-01T11:32:57.985Z,998.53
2016-11-01T11:34:08.343Z,998.53
2016-11-01T11:36:29.062Z,998.53
2016-11-01T11:37:39.425Z,998.53
2016-11-01T11:38:49.782Z,998.53
2016-11-01T11:40:00.162Z,998.53
2016-11-01T11:41:10.501Z,998.53
2016-11-01T11:42:20.867Z,998.53
2016-11-01T11:43:31.223Z,998.53
2016-11-01T11:44:41.583Z,998.53
2016-11-01T11:45:51.943Z,998.53
2016-11-01T11:47:02.301Z,998.53
2016-11-01T11:48:12.663Z,998.53
2016-11-01T11:49:23.025Z,998.53
2016-11-01T12:14:59.792Z,998
2016-11-01T12:16:10.184Z,997.98
2016-11-01T12:17:20.584Z,997.97
2016-11-01T12:18:30.976Z,997.92
2016-11-01T12:19:41.374Z,997.92
2016-11-01T12:20:31.862Z,997.91
2016-11-01T12:21:42.263Z,997.96
2016-11-01T12:22:52.670Z,997.93
2016-11-01T12:24:03.069Z,997.95
2016-11-01T12:25:13.422Z,997.95
2016-11-01T12:26:23.786Z,997.95
2016-11-01T12:27:14.011Z,997.95
2016-11-01T12:28:24.368Z,997.95
2016-11-01T12:29:34.727Z,997.95
2016-11-01T12:30:45.080Z,997.95
2016-11-01T12:31:55.442Z,997.95
2016-11-01T12:33:05.797Z,997.95
2016-11-01T12:34:16.154Z,997.95
2016-11-01T12:35:26.514Z,997.95
2016-11-01T12:36:36.874Z,997.95
2016-11-01T12:37:47.232Z,997.95
2016-11-01T12:38:57.592Z,997.95
2016-11-01T12:40:07.953Z,997.95
2016-11-01T12:41:18.315Z,997.95
2016-11-01T12:42:28.675Z,997.95
2016-11-01T12:43:39.031Z,997.95
2016-11-01T12:44:49.399Z,997.95
2016-11-01T12:45:59.759Z,997.95
2016-11-01T12:47:10.118Z,997.95
2016-11-01T12:48:20.476Z,997.95
2016-11-01T12:49:30.837Z,997.95
2016-11-01T13:15:39.990Z,997.55
2016-11-01T14:15:49.598Z,996.78
2016-11-01T14:16:59.999Z,996.77
2016-11-01T14:18:10.391Z,996.78
2016-11-01T14:19:20.804Z,996.83
2016-11-01T14:20:31.197Z,996.85
2016-11-01T14:21:41.594Z,996.81
2016-11-01T14:22:51.992Z,996.81
2016-11-01T14:24:02.395Z,996.82
2016-11-01T14:25:12.797Z,996.79
2016-11-01T14:26:23.148Z,996.79
2016-11-01T14:27:33.507Z,996.79
2016-11-01T14:28:43.853Z,996.79
2016-11-01T14:29:54.221Z,996.79
2016-11-01T14:31:04.758Z,996.79
2016-11-01T14:31:54.913Z,996.79
2016-11-01T15:17:07.756Z,996.42
2016-11-01T15:18:18.150Z,996.4
2016-11-01T15:19:28.546Z,996.42
2016-11-01T15:20:38.946Z,996.49
2016-11-01T15:21:49.346Z,996.44
2016-11-01T15:22:59.740Z,996.48
2016-11-01T15:24:10.141Z,996.47
2016-11-01T15:25:20.542Z,996.4
2016-11-01T15:26:30.895Z,996.4
2016-11-01T15:27:41.246Z,996.4
2016-11-01T15:28:51.602Z,996.4
2016-11-01T15:30:01.957Z,996.4
2016-11-01T15:31:12.311Z,996.4
2016-11-01T15:32:22.665Z,996.4
2016-11-01T15:33:33.031Z,996.4
2016-11-01T15:34:43.387Z,996.4
2016-11-01T15:35:53.744Z,996.4
2016-11-01T15:37:04.106Z,996.4
2016-11-01T15:38:14.468Z,996.4
2016-11-01T15:39:24.824Z,996.4
2016-11-01T15:40:35.184Z,996.4
2016-11-01T15:41:45.544Z,996.4
2016-11-01T15:42:55.903Z,996.4
2016-11-01T15:44:06.275Z,996.4
2016-11-01T15:45:16.634Z,996.4
2016-11-01T15:46:26.994Z,996.4
2016-11-01T15:47:37.431Z,996.4
2016-11-01T15:48:47.790Z,996.4
2016-11-01T15:49:58.152Z,996.4
2016-11-01T16:15:57.110Z,996.34
2016-11-01T16:17:07.505Z,996.34
2016-11-01T16:18:17.901Z,996.32
2016-11-01T16:19:28.306Z,996.35
2016-11-01T16:20:38.702Z,996.38
2016-11-01T16:21:49.102Z,996.37
2016-11-01T16:22:59.486Z,996.37
2016-11-01T16:24:09.888Z,996.37
2016-11-01T16:25:20.289Z,996.28
2016-11-01T16:26:30.643Z,996.28
2016-11-01T17:15:54.441Z,996.09
2016-11-01T17:16:44.933Z,996.09
2016-11-01T17:17:55.330Z,996.05
2016-11-01T17:19:05.725Z,996.04
2016-11-01T17:20:16.123Z,996.02
2016-11-01T17:21:26.524Z,996.03
2016-11-01T17:22:36.925Z,996.03
2016-11-01T17:23:47.323Z,996.02
2016-11-01T17:24:57.722Z,995.96
2016-11-01T17:26:08.075Z,995.96
2016-11-01T17:27:18.427Z,995.96
2016-11-01T17:28:28.780Z,995.96
2016-11-01T17:29:39.136Z,995.96
2016-11-01T17:30:49.487Z,995.96
2016-11-01T17:31:59.849Z,995.96
2016-11-01T17:33:10.204Z,995.96
2016-11-01T17:34:20.559Z,995.96
2016-11-01T17:35:30.918Z,995.96
2016-11-01T17:36:41.277Z,995.96
2016-11-01T17:37:51.640Z,995.96
2016-11-01T17:39:02.007Z,995.96
2016-11-01T17:40:12.344Z,995.96
2016-11-01T17:41:22.702Z,995.96
2016-11-01T17:42:33.074Z,995.96
2016-11-01T17:44:53.823Z,995.96
2016-11-01T17:46:04.182Z,995.96
2016-11-01T17:47:14.541Z,995.96
2016-11-01T17:48:24.901Z,995.96
2016-11-01T17:49:35.261Z,995.96
2016-11-01T17:50:45.623Z,995.96
2016-11-01T18:15:44.063Z,995.76
2016-11-01T18:16:54.454Z,995.78
2016-11-01T18:18:04.851Z,995.8
2016-11-01T18:19:15.247Z,995.86
2016-11-01T19:15:55.558Z,0
2016-11-01T19:17:05.907Z,0
2016-11-01T19:18:16.255Z,0
2016-11-01T19:19:26.604Z,0
2016-11-01T19:20:36.955Z,0
2016-11-01T19:21:47.305Z,0
2016-11-01T20:15:52.215Z,995.83
2016-11-01T20:17:02.615Z,995.84
2016-11-01T20:18:13.008Z,995.87
2016-11-01T20:19:23.406Z,995.84
2016-11-01T20:20:33.805Z,995.83
2016-11-01T20:21:44.206Z,995.84
2016-11-01T20:22:54.605Z,995.85
2016-11-01T20:24:05.007Z,995.81
2016-11-01T20:25:15.407Z,995.78
2016-11-01T20:26:25.806Z,995.78
2016-11-01T20:27:36.203Z,995.81
2016-11-01T20:28:46.606Z,995.71
2016-11-01T20:29:57.005Z,995.74
2016-11-01T20:31:07.448Z,995.79
2016-11-01T20:32:17.803Z,995.79
2016-11-01T21:15:43.087Z,995.89
2016-11-01T22:16:00.342Z,995.17
2016-11-01T22:16:50.822Z,995.18
2016-11-01T22:18:01.219Z,995.14
2016-11-01T22:19:11.617Z,995.14
2016-11-01T22:20:22.020Z,995.15
2016-11-01T22:21:32.416Z,995.14
2016-11-01T22:22:42.814Z,995.12
2016-11-01T22:23:53.215Z,995.08
2016-11-01T22:25:03.615Z,995.1
2016-11-01T22:26:13.970Z,995.1
2016-11-01T23:16:06.896Z,995.09
2016-11-01T23:17:17.293Z,995.11
2016-11-01T23:18:27.683Z,995.11
2016-11-01T23:19:38.086Z,995.11
2016-11-01T23:20:48.487Z,995.13
2016-11-01T23:21:58.885Z,995.13
2016-11-01T23:23:09.290Z,995.1
2016-11-01T23:24:19.687Z,995.07
2016-11-01T23:25:30.081Z,995.09
2016-11-01T23:26:40.486Z,995.12
2016-11-01T23:27:50.885Z,995.11
2016-11-01T23:29:01.242Z,995.11
2016-11-01T23:30:11.597Z,995.11
2016-11-01T23:31:21.957Z,995.11
2016-11-01T23:32:32.315Z,995.11
2016-11-01T23:33:42.671Z,995.11
2016-11-01T23:34:53.026Z,995.11
2016-11-01T23:36:03.381Z,995.11
2016-11-01T23:37:13.742Z,995.11
2016-11-01T23:38:24.102Z,995.11
2016-11-01T23:39:34.460Z,995.11
2016-11-01T23:40:44.817Z,995.11
2016-11-01T23:41:55.181Z,995.11
2016-11-01T23:43:05.540Z,995.11
2016-11-01T23:44:15.899Z,995.11
2016-11-01T23:45:26.261Z,995.11
2016-11-01T23:46:36.619Z,995.11
2016-11-01T23:47:46.980Z,995.11
2016-11-01T23:48:57.344Z,995.11
2016-11-01T23:50:07.706Z,995.11
